Flight Track Log - Related Links

Times and Time Zones

All times are in EDT time to prevent confusion due to time zone crossing. See the FLG4262 flight status page for this flight to view local times or setup timezone preferences in your user account.

Time Position Orientation Groundspeed Altitude Reporting Facility
EDT Latitude Longitude Course Direction KTS MPH feet Rate Location/Type
Thu 05:39:48 PM 42.1597 -76.0525 267° West 245 282 4,700  Level New York Center
Thu 05:40:48 PM 42.1869 -76.1444 292° West 257 296 7,600 2,152 Climbing New York Center
Thu 05:42:00 PM 42.2278 -76.6293 294° West  Level Estimated
Thu 05:43:00 PM 42.2312 -76.7592 289° West  Level Estimated
Thu 05:43:06 PM 42.2622 -76.3772 294° West 317 365 11,800  Level Cleveland Center
Thu 05:44:00 PM 42.2919 -76.8603 309° West  Level FlightAware Approximate
Thu 05:44:08 PM 42.2992 -76.4964 293° West 346 398 13,300  Level Cleveland Center
Thu 05:45:10 PM 42.3378 -76.6242 292° West 365 420 14,800 1,452 Climbing Cleveland Center
Thu 05:46:12 PM 42.3789 -76.7553 293° West 377 434 16,300 1,597 Climbing Cleveland Center
Thu 05:47:14 PM 42.4247 -76.9100 292° West 371 427 18,100 1,452 Climbing Cleveland Center
Thu 05:48:16 PM 42.4639 -77.0408 292° West 374 430 19,300 1,056 Climbing Cleveland Center
Thu 05:49:19 PM 42.5039 -77.1756 292° West 384 442 20,300 960 Climbing Cleveland Center
Thu 05:50:21 PM 42.5442 -77.3125 292° West 389 448 21,300 968 Climbing Cleveland Center
Thu 05:51:23 PM 42.5867 -77.4547 292° West 393 452 22,300 968 Climbing Cleveland Center
Thu 05:52:25 PM 42.6269 -77.5908 292° West 391 450 23,300 968 Climbing Cleveland Center
Thu 05:53:27 PM 42.6669 -77.7283 292° West 390 449 24,300 1,065 Climbing Cleveland Center
Thu 05:54:29 PM 42.7097 -77.8742 292° West 393 452 25,500 1,065 Climbing Cleveland Center
Thu 05:55:31 PM 42.7319 -78.0136 282° West 387 445 26,500 1,065 Climbing Cleveland Center
Thu 05:56:33 PM 42.7328 -78.1900 270° West 390 449 27,700 726 Climbing Cleveland Center
Thu 05:57:35 PM 42.7331 -78.3353 270° West 387 445 28,000 145 Climbing Cleveland Center
Thu 05:58:37 PM 42.7333 -78.4897 270° West 412 474 28,000  Level Cleveland Center
Thu 05:59:40 PM 42.7336 -78.6475 270° West 417 480 28,000  Level Cleveland Center
Thu 06:00:42 PM 42.7336 -78.8117 270° West 433 498 28,000  Level Cleveland Center
Thu 06:01:44 PM 42.7331 -79.0092 270° West 437 503 28,000  Level Cleveland Center
Thu 06:02:46 PM 42.7317 -79.1769 269° West 444 511 28,000  Level Cleveland Center
Thu 06:03:48 PM 42.7303 -79.3456 269° West 447 514 28,000  Level Cleveland Center
Thu 06:04:50 PM 42.7286 -79.5147 269° West 448 516 28,000  Level Cleveland Center
Thu 06:05:52 PM 42.7267 -79.6847 269° West 450 518 28,000  Level Cleveland Center
Thu 06:06:54 PM 42.7242 -79.8567 269° West 456 525 28,000  Level Cleveland Center
Thu 06:07:56 PM 42.7197 -80.0578 268° West 451 519 28,000  Level Cleveland Center
Thu 06:08:58 PM 42.7169 -80.2278 269° West 448 516 28,000  Level Cleveland Center
Thu 06:10:00 PM 42.7147 -80.3997 269° West 450 518 28,000  Level Cleveland Center
Thu 06:11:02 PM 42.7125 -80.5739 269° West 456 525 28,000  Level Cleveland Center
Thu 06:12:05 PM 42.7092 -80.7469 269° West 455 524 28,000 -624 Level Cleveland Center
Thu 06:13:07 PM 42.7022 -80.9211 267° West 459 528 26,700 -1,500 Descending Cleveland Center
Thu 06:14:09 PM 42.6800 -81.1156 261° West 445 512 24,900 -1,306 Descending Cleveland Center
Thu 06:15:11 PM 42.6639 -81.2611 261° West 399 459 24,000 -435 Descending Cleveland Center
Thu 06:16:13 PM 42.6464 -81.4100 261° West 396 456 24,000  Level Cleveland Center
Thu 06:17:15 PM 42.6297 -81.5569 261° West 394 453 24,000 -677 Level Cleveland Center
Thu 06:18:17 PM 42.6114 -81.7031 260° West 392 451 22,600 -1,597 Descending Cleveland Center
Thu 06:19:19 PM 42.5950 -81.8411 261° West 365 420 20,700 -1,790 Descending Cleveland Center
Thu 06:20:21 PM 42.5794 -81.9653 260° West 341 392 18,900 -1,694 Descending Cleveland Center
Thu 06:21:23 PM 42.5653 -82.0844 261° West 324 373 17,200 -1,935 Descending Cleveland Center
Thu 06:22:25 PM 42.5483 -82.2208 260° West 311 358 14,900 -2,100 Descending Cleveland Center
Thu 06:22:43 PM 42.5447 -82.2569 262° West 302 348 14,400 -1,742 Descending Cleveland Center
Thu 06:23:27 PM 42.5336 -82.3286 258° West 298 343 13,100 -1,770 Descending Cleveland Center
Thu 06:23:44 PM 42.5308 -82.3656 264° West 294 338 12,600 -1,065 Descending Cleveland Center
Thu 06:24:29 PM 42.5206 -82.4375 259° West 293 337 12,000 -590 Descending Cleveland Center
Thu 06:24:45 PM 42.5172 -82.4714 262° West 288 331 12,000 -95 Level Cleveland Center
Thu 06:25:32 PM 42.5078 -82.5369 259° West 275 316 11,900  Descending Cleveland Center
Thu 06:25:46 PM 42.5000 -82.5681 251° West 236 272 12,000 -581 Climbing Cleveland Center
Thu 06:26:34 PM 42.4811 -82.6194 244° Southwest 246 283 11,300 -1,180 Descending Cleveland Center
Thu 06:26:47 PM 42.4711 -82.6522 248° West 240 276 10,800 -1,258 Descending Cleveland Center
Thu 06:27:36 PM 42.4517 -82.6983 240° Southwest 239 275 10,000 -1,235 Descending Cleveland Center
Thu 06:27:55 PM 42.4339 -82.7319 234° Southwest 227 261 9,400 -968 Descending Cleveland Center
Thu 06:28:38 PM 42.4072 -82.7811 234° Southwest 229 264 9,000 -787 Descending Cleveland Center
Thu 06:28:56 PM 42.3950 -82.8061 237° Southwest 228 262 8,600 -1,161 Descending Cleveland Center
Thu 06:29:40 PM 42.3700 -82.8503 233° Southwest 228 262 7,800 -984 Descending Cleveland Center
Thu 06:29:57 PM 42.3586 -82.8747 238° Southwest 220 253 7,600 -774 Descending Cleveland Center
Thu 06:30:42 PM 42.3364 -82.9131 232° Southwest 215 247 7,000 -590 Descending Cleveland Center
Thu 06:30:58 PM 42.3269 -82.9353 240° Southwest 193 222 7,000  Level Cleveland Center
Thu 06:31:44 PM 42.3058 -82.9725 233° Southwest 199 229 7,000  Level Cleveland Center
Thu 06:32:00 PM 42.2953 -82.9958 239° Southwest 202 232 7,000  Level Cleveland Center
Thu 06:32:46 PM 42.2733 -83.0328 231° Southwest 198 228 7,000  Level Cleveland Center
Thu 06:33:01 PM 42.2608 -83.0617 240° Southwest 198 228 7,000  Level Cleveland Center
Thu 06:33:48 PM 42.2589 -83.1086 267° West 204 235 7,000  Level Cleveland Center
Thu 06:34:02 PM 42.2644 -83.1244 295° West 201 231 7,000 -97 Level Cleveland Center
Thu 06:34:50 PM 42.3100 -83.1189 North 226 260 6,900  Descending Cleveland Center
Thu 06:35:03 PM 42.3222 -83.1097 29° Northeast 231 266 7,000  Climbing Cleveland Center
Thu 06:35:52 PM 42.3614 -83.0744 34° Northeast 226 260 6,900  Descending Cleveland Center
Thu 06:36:05 PM 42.3781 -83.0636 26° Northeast 224 258 7,000 97 Climbing Cleveland Center
Thu 06:36:54 PM 42.4131 -83.0314 34° Northeast 221 254 7,000  Level Cleveland Center
Thu 06:37:06 PM 42.4317 -83.0200 24° Northeast 219 252 7,000  Level Cleveland Center
Thu 06:37:56 PM 42.4667 -82.9933 29° Northeast 219 252 7,000 -393 Level Cleveland Center
Thu 06:38:07 PM 42.4844 -82.9847 20° North 217 250 6,600 -952 Descending Cleveland Center
Thu 06:38:59 PM 42.5125 -83.0014 336° Northwest 204 235 6,000 -590 Descending Cleveland Center
Thu 06:39:08 PM 42.5233 -83.0269 300° West 191 220 6,000  Level Cleveland Center
Thu 06:40:01 PM 42.5331 -83.0792 284° West 190 219 6,000  Level Cleveland Center
Thu 06:40:09 PM 42.5289 -83.0900 242° Southwest 181 208 6,000  Level Cleveland Center
Thu 06:41:03 PM 42.4981 -83.1278 222° Southwest 184 212 6,000  Level Cleveland Center
Thu 06:41:10 PM 42.4900 -83.1356 215° Southwest 185 213 6,000 -194 Level Cleveland Center
Thu 06:42:05 PM 42.4528 -83.1589 205° Southwest 184 212 5,800 -393 Descending Cleveland Center
Thu 06:42:11 PM 42.4433 -83.1689 218° Southwest 184 212 5,600 -1,065 Descending Cleveland Center
Thu 06:43:07 PM 42.4081 -83.1922 206° Southwest 184 212 4,700 -968 Descending Cleveland Center
Thu 06:43:13 PM 42.3989 -83.2022 219° Southwest 176 203 4,600 -871 Descending Cleveland Center
Thu 06:44:09 PM 42.3647 -83.2261 207° Southwest 181 208 3,800 -984 Descending Cleveland Center
Thu 06:44:14 PM 42.3547 -83.2328 206° Southwest 175 201 3,600 -871 Descending Cleveland Center
Thu 06:45:11 PM 42.3219 -83.2569 209° Southwest 175 201 2,900 -885 Descending Cleveland Center
Thu 06:45:15 PM 42.3103 -83.2661 210° Southwest 174 200 2,700 -968 Descending Cleveland Center
Thu 06:46:13 PM 42.2772 -83.2906 209° Southwest 153 176 1,900 -806 Descending Cleveland Center
Thu 06:46:22 PM 42.2725 -83.2947 213° Southwest 130 150 1,800 -581 Descending Cleveland Center
Thu 06:47:15 PM 42.2458 -83.3128 207° Southwest 131 151 1,300 -590 Descending Cleveland Center
Thu 06:47:23 PM 42.2414 -83.3186 224° Southwest 129 148 1,200 -194 Descending Cleveland Center
Thu 06:48:17 PM 42.2147 -83.3356 205° Southwest 130 150 1,100 -111 Descending Cleveland Center

Login

Don't have an account? Register now (free) for customized features, flight alerts, and more!